sensor_id;sensor_type;location;lat;lon;timestamp;P1;durP1;ratioP1;P2;durP2;ratioP2
45842;SDS011;31563;51.744;8.252;2023-05-07T00:00:04;0.50;;;0.50;;
45842;SDS011;31563;51.744;8.252;2023-05-07T00:02:35;0.90;;;0.55;;
45842;SDS011;31563;51.744;8.252;2023-05-07T00:05:04;1.00;;;0.70;;
45842;SDS011;31563;51.744;8.252;2023-05-07T00:07:34;0.50;;;0.40;;
45842;SDS011;31563;51.744;8.252;2023-05-07T00:10:02;0.80;;;0.60;;
45842;SDS011;31563;51.744;8.252;2023-05-07T00:12:32;0.85;;;0.70;;
45842;SDS011;31563;51.744;8.252;2023-05-07T00:15:03;2.92;;;1.00;;
45842;SDS011;31563;51.744;8.252;2023-05-07T00:17:32;2.42;;;1.10;;
45842;SDS011;31563;51.744;8.252;2023-05-07T00:20:01;0.93;;;0.50;;
45842;SDS011;31563;51.744;8.252;2023-05-07T00:22:30;1.52;;;0.70;;
45842;SDS011;31563;51.744;8.252;2023-05-07T00:24:58;2.10;;;0.60;;
45842;SDS011;31563;51.744;8.252;2023-05-07T00:27:26;0.75;;;0.60;;
45842;SDS011;31563;51.744;8.252;2023-05-07T00:29:54;1.50;;;0.63;;
45842;SDS011;31563;51.744;8.252;2023-05-07T00:32:24;1.30;;;0.60;;
45842;SDS011;31563;51.744;8.252;2023-05-07T00:34:52;1.88;;;0.70;;
45842;SDS011;31563;51.744;8.252;2023-05-07T00:37:20;2.28;;;0.73;;
45842;SDS011;31563;51.744;8.252;2023-05-07T00:39:49;0.90;;;0.50;;
45842;SDS011;31563;51.744;8.252;2023-05-07T00:42:17;0.65;;;0.50;;
45842;SDS011;31563;51.744;8.252;2023-05-07T00:44:46;1.75;;;0.70;;
45842;SDS011;31563;51.744;8.252;2023-05-07T00:47:14;1.20;;;0.70;;
45842;SDS011;31563;51.744;8.252;2023-05-07T00:49:44;1.13;;;0.60;;
45842;SDS011;31563;51.744;8.252;2023-05-07T00:52:13;0.82;;;0.60;;
45842;SDS011;31563;51.744;8.252;2023-05-07T00:54:43;1.90;;;0.60;;
45842;SDS011;31563;51.744;8.252;2023-05-07T00:57:11;0.80;;;0.57;;
45842;SDS011;31563;51.744;8.252;2023-05-07T00:59:40;0.80;;;0.50;;
45842;SDS011;31563;51.744;8.252;2023-05-07T01:02:08;1.85;;;0.70;;
45842;SDS011;31563;51.744;8.252;2023-05-07T01:04:37;0.98;;;0.60;;
45842;SDS011;31563;51.744;8.252;2023-05-07T01:07:07;0.95;;;0.50;;
45842;SDS011;31563;51.744;8.252;2023-05-07T01:12:04;1.70;;;0.70;;
45842;SDS011;31563;51.744;8.252;2023-05-07T01:17:02;0.75;;;0.60;;
45842;SDS011;31563;51.744;8.252;2023-05-07T01:19:30;1.35;;;0.50;;
45842;SDS011;31563;51.744;8.252;2023-05-07T01:22:01;1.98;;;0.70;;
45842;SDS011;31563;51.744;8.252;2023-05-07T01:24:32;0.77;;;0.50;;
45842;SDS011;31563;51.744;8.252;2023-05-07T01:27:01;1.70;;;0.70;;
45842;SDS011;31563;51.744;8.252;2023-05-07T01:29:29;1.50;;;0.55;;
45842;SDS011;31563;51.744;8.252;2023-05-07T01:31:59;0.88;;;0.55;;
45842;SDS011;31563;51.744;8.252;2023-05-07T01:34:28;0.88;;;0.60;;
45842;SDS011;31563;51.744;8.252;2023-05-07T01:36:58;0.98;;;0.60;;
45842;SDS011;31563;51.744;8.252;2023-05-07T01:39:28;1.25;;;0.47;;
45842;SDS011;31563;51.744;8.252;2023-05-07T01:41:58;0.98;;;0.70;;
45842;SDS011;31563;51.744;8.252;2023-05-07T01:44:26;0.80;;;0.60;;
45842;SDS011;31563;51.744;8.252;2023-05-07T01:46:56;1.23;;;0.85;;
45842;SDS011;31563;51.744;8.252;2023-05-07T01:49:24;1.52;;;0.60;;
45842;SDS011;31563;51.744;8.252;2023-05-07T01:51:53;1.17;;;0.52;;
45842;SDS011;31563;51.744;8.252;2023-05-07T01:54:24;1.48;;;0.60;;
45842;SDS011;31563;51.744;8.252;2023-05-07T01:56:55;0.55;;;0.45;;
45842;SDS011;31563;51.744;8.252;2023-05-07T01:59:25;0.70;;;0.60;;
45842;SDS011;31563;51.744;8.252;2023-05-07T02:01:53;0.47;;;0.40;;
45842;SDS011;31563;51.744;8.252;2023-05-07T02:04:21;1.38;;;0.60;;
45842;SDS011;31563;51.744;8.252;2023-05-07T02:06:49;0.77;;;0.60;;
45842;SDS011;31563;51.744;8.252;2023-05-07T02:09:19;0.77;;;0.60;;
45842;SDS011;31563;51.744;8.252;2023-05-07T02:11:47;1.48;;;0.70;;
45842;SDS011;31563;51.744;8.252;2023-05-07T02:14:16;0.60;;;0.50;;
45842;SDS011;31563;51.744;8.252;2023-05-07T02:16:46;0.77;;;0.57;;
45842;SDS011;31563;51.744;8.252;2023-05-07T02:19:14;0.65;;;0.50;;
45842;SDS011;31563;51.744;8.252;2023-05-07T02:21:42;0.73;;;0.65;;
45842;SDS011;31563;51.744;8.252;2023-05-07T02:24:10;0.60;;;0.50;;
45842;SDS011;31563;51.744;8.252;2023-05-07T02:26:39;0.70;;;0.60;;
45842;SDS011;31563;51.744;8.252;2023-05-07T02:29:07;1.27;;;0.60;;
45842;SDS011;31563;51.744;8.252;2023-05-07T02:31:37;1.13;;;0.80;;
45842;SDS011;31563;51.744;8.252;2023-05-07T02:34:05;1.10;;;0.73;;
45842;SDS011;31563;51.744;8.252;2023-05-07T02:36:33;1.10;;;1.00;;
45842;SDS011;31563;51.744;8.252;2023-05-07T02:39:01;0.70;;;0.60;;
45842;SDS011;31563;51.744;8.252;2023-05-07T02:41:29;1.23;;;0.75;;
45842;SDS011;31563;51.744;8.252;2023-05-07T02:43:58;1.02;;;0.60;;
45842;SDS011;31563;51.744;8.252;2023-05-07T02:46:26;1.00;;;0.80;;
45842;SDS011;31563;51.744;8.252;2023-05-07T02:48:55;0.80;;;0.60;;
45842;SDS011;31563;51.744;8.252;2023-05-07T02:51:25;0.90;;;0.80;;
45842;SDS011;31563;51.744;8.252;2023-05-07T02:53:53;1.25;;;0.80;;
45842;SDS011;31563;51.744;8.252;2023-05-07T02:56:21;0.70;;;0.52;;
45842;SDS011;31563;51.744;8.252;2023-05-07T02:58:49;1.52;;;0.80;;
45842;SDS011;31563;51.744;8.252;2023-05-07T03:01:18;1.10;;;0.73;;
45842;SDS011;31563;51.744;8.252;2023-05-07T03:03:47;1.08;;;0.80;;
45842;SDS011;31563;51.744;8.252;2023-05-07T03:06:17;0.80;;;0.70;;
45842;SDS011;31563;51.744;8.252;2023-05-07T03:08:45;0.80;;;0.63;;
45842;SDS011;31563;51.744;8.252;2023-05-07T03:11:13;1.25;;;0.80;;
45842;SDS011;31563;51.744;8.252;2023-05-07T03:13:41;1.08;;;0.75;;
45842;SDS011;31563;51.744;8.252;2023-05-07T03:16:09;1.05;;;0.82;;
45842;SDS011;31563;51.744;8.252;2023-05-07T03:18:37;1.30;;;0.75;;
45842;SDS011;31563;51.744;8.252;2023-05-07T03:21:06;0.77;;;0.70;;
45842;SDS011;31563;51.744;8.252;2023-05-07T03:23:35;1.02;;;0.93;;
45842;SDS011;31563;51.744;8.252;2023-05-07T03:26:03;1.00;;;0.90;;
45842;SDS011;31563;51.744;8.252;2023-05-07T03:28:31;1.85;;;0.70;;
45842;SDS011;31563;51.744;8.252;2023-05-07T03:30:59;1.75;;;1.00;;
45842;SDS011;31563;51.744;8.252;2023-05-07T03:33:28;1.33;;;0.80;;
45842;SDS011;31563;51.744;8.252;2023-05-07T03:35:56;1.38;;;1.15;;
45842;SDS011;31563;51.744;8.252;2023-05-07T03:38:24;1.30;;;0.98;;
45842;SDS011;31563;51.744;8.252;2023-05-07T03:40:53;1.00;;;0.80;;
45842;SDS011;31563;51.744;8.252;2023-05-07T03:43:22;0.85;;;0.82;;
45842;SDS011;31563;51.744;8.252;2023-05-07T03:45:50;1.35;;;1.00;;
45842;SDS011;31563;51.744;8.252;2023-05-07T03:48:18;1.10;;;0.98;;
45842;SDS011;31563;51.744;8.252;2023-05-07T03:50:46;1.25;;;0.98;;
45842;SDS011;31563;51.744;8.252;2023-05-07T03:53:14;1.25;;;0.90;;
45842;SDS011;31563;51.744;8.252;2023-05-07T03:55:42;2.55;;;1.23;;
45842;SDS011;31563;51.744;8.252;2023-05-07T03:58:12;1.55;;;1.20;;
45842;SDS011;31563;51.744;8.252;2023-05-07T04:00:40;1.10;;;0.95;;
45842;SDS011;31563;51.744;8.252;2023-05-07T04:03:08;1.05;;;0.95;;
45842;SDS011;31563;51.744;8.252;2023-05-07T04:05:37;1.95;;;1.10;;
45842;SDS011;31563;51.744;8.252;2023-05-07T04:08:05;1.35;;;0.90;;
45842;SDS011;31563;51.744;8.252;2023-05-07T04:10:33;2.80;;;1.45;;
45842;SDS011;31563;51.744;8.252;2023-05-07T04:13:01;1.33;;;0.85;;
45842;SDS011;31563;51.744;8.252;2023-05-07T04:15:31;1.40;;;1.30;;
45842;SDS011;31563;51.744;8.252;2023-05-07T04:17:59;1.98;;;1.00;;
45842;SDS011;31563;51.744;8.252;2023-05-07T04:20:27;1.40;;;1.10;;
45842;SDS011;31563;51.744;8.252;2023-05-07T04:22:55;1.30;;;1.20;;
45842;SDS011;31563;51.744;8.252;2023-05-07T04:25:23;1.25;;;1.15;;
45842;SDS011;31563;51.744;8.252;2023-05-07T04:27:53;1.33;;;1.10;;
45842;SDS011;31563;51.744;8.252;2023-05-07T04:30:23;1.40;;;1.20;;
45842;SDS011;31563;51.744;8.252;2023-05-07T04:32:52;1.45;;;1.35;;
45842;SDS011;31563;51.744;8.252;2023-05-07T04:35:21;1.58;;;1.48;;
45842;SDS011;31563;51.744;8.252;2023-05-07T04:37:49;1.73;;;1.45;;
45842;SDS011;31563;51.744;8.252;2023-05-07T04:40:17;1.40;;;1.30;;
45842;SDS011;31563;51.744;8.252;2023-05-07T04:42:45;1.65;;;1.38;;
45842;SDS011;31563;51.744;8.252;2023-05-07T04:45:13;1.58;;;1.40;;
45842;SDS011;31563;51.744;8.252;2023-05-07T04:47:41;1.55;;;1.38;;
45842;SDS011;31563;51.744;8.252;2023-05-07T04:50:11;3.95;;;3.55;;
45842;SDS011;31563;51.744;8.252;2023-05-07T04:52:39;12.80;;;11.65;;
45842;SDS011;31563;51.744;8.252;2023-05-07T04:55:08;15.30;;;13.70;;
45842;SDS011;31563;51.744;8.252;2023-05-07T04:57:36;15.07;;;13.57;;
45842;SDS011;31563;51.744;8.252;2023-05-07T05:00:06;14.27;;;12.97;;
45842;SDS011;31563;51.744;8.252;2023-05-07T05:02:36;14.38;;;12.55;;
45842;SDS011;31563;51.744;8.252;2023-05-07T05:05:05;16.10;;;14.43;;
45842;SDS011;31563;51.744;8.252;2023-05-07T05:07:35;16.20;;;14.57;;
45842;SDS011;31563;51.744;8.252;2023-05-07T05:10:04;16.27;;;14.35;;
45842;SDS011;31563;51.744;8.252;2023-05-07T05:12:33;16.15;;;14.48;;
45842;SDS011;31563;51.744;8.252;2023-05-07T05:15:01;14.98;;;13.38;;
45842;SDS011;31563;51.744;8.252;2023-05-07T05:17:30;15.60;;;14.02;;
45842;SDS011;31563;51.744;8.252;2023-05-07T05:20:00;15.15;;;13.75;;
45842;SDS011;31563;51.744;8.252;2023-05-07T05:22:28;16.70;;;14.10;;
45842;SDS011;31563;51.744;8.252;2023-05-07T05:24:59;15.05;;;13.55;;
45842;SDS011;31563;51.744;8.252;2023-05-07T05:27:27;14.95;;;13.43;;
45842;SDS011;31563;51.744;8.252;2023-05-07T05:29:56;15.50;;;13.93;;
45842;SDS011;31563;51.744;8.252;2023-05-07T05:32:24;16.85;;;15.10;;
45842;SDS011;31563;51.744;8.252;2023-05-07T05:34:53;17.85;;;16.17;;
45842;SDS011;31563;51.744;8.252;2023-05-07T05:37:21;15.32;;;13.82;;
45842;SDS011;31563;51.744;8.252;2023-05-07T05:39:50;15.80;;;14.07;;
45842;SDS011;31563;51.744;8.252;2023-05-07T05:42:20;17.30;;;15.13;;
45842;SDS011;31563;51.744;8.252;2023-05-07T05:44:48;16.27;;;14.57;;
45842;SDS011;31563;51.744;8.252;2023-05-07T05:47:16;16.10;;;14.57;;
45842;SDS011;31563;51.744;8.252;2023-05-07T05:49:44;16.38;;;14.65;;
45842;SDS011;31563;51.744;8.252;2023-05-07T05:52:12;16.20;;;14.57;;
45842;SDS011;31563;51.744;8.252;2023-05-07T05:54:41;16.95;;;15.15;;
45842;SDS011;31563;51.744;8.252;2023-05-07T05:57:09;17.83;;;14.63;;
45842;SDS011;31563;51.744;8.252;2023-05-07T05:59:39;17.08;;;15.02;;
45842;SDS011;31563;51.744;8.252;2023-05-07T06:02:07;14.32;;;12.77;;
45842;SDS011;31563;51.744;8.252;2023-05-07T06:04:35;15.00;;;13.30;;
45842;SDS011;31563;51.744;8.252;2023-05-07T06:07:03;12.25;;;11.00;;
45842;SDS011;31563;51.744;8.252;2023-05-07T06:09:31;11.63;;;10.38;;
45842;SDS011;31563;51.744;8.252;2023-05-07T06:11:59;10.65;;;9.55;;
45842;SDS011;31563;51.744;8.252;2023-05-07T06:14:28;10.70;;;8.75;;
45842;SDS011;31563;51.744;8.252;2023-05-07T06:19:27;11.60;;;8.27;;
45842;SDS011;31563;51.744;8.252;2023-05-07T06:21:55;9.57;;;8.57;;
45842;SDS011;31563;51.744;8.252;2023-05-07T06:24:23;9.95;;;8.10;;
45842;SDS011;31563;51.744;8.252;2023-05-07T06:26:52;10.18;;;9.02;;
45842;SDS011;31563;51.744;8.252;2023-05-07T06:29:20;10.05;;;8.18;;
45842;SDS011;31563;51.744;8.252;2023-05-07T06:31:48;7.93;;;7.00;;
45842;SDS011;31563;51.744;8.252;2023-05-07T06:34:17;8.68;;;7.78;;
45842;SDS011;31563;51.744;8.252;2023-05-07T06:36:46;10.40;;;7.72;;
45842;SDS011;31563;51.744;8.252;2023-05-07T06:39:14;10.50;;;7.82;;
45842;SDS011;31563;51.744;8.252;2023-05-07T06:41:42;11.90;;;10.50;;
45842;SDS011;31563;51.744;8.252;2023-05-07T06:44:10;10.88;;;9.77;;
45842;SDS011;31563;51.744;8.252;2023-05-07T06:46:38;12.50;;;9.02;;
45842;SDS011;31563;51.744;8.252;2023-05-07T06:49:06;9.40;;;7.78;;
45842;SDS011;31563;51.744;8.252;2023-05-07T06:51:36;10.32;;;8.20;;
45842;SDS011;31563;51.744;8.252;2023-05-07T06:54:04;8.27;;;7.28;;
45842;SDS011;31563;51.744;8.252;2023-05-07T06:56:32;7.95;;;7.13;;
45842;SDS011;31563;51.744;8.252;2023-05-07T06:59:01;9.30;;;7.38;;
45842;SDS011;31563;51.744;8.252;2023-05-07T07:01:30;8.03;;;7.23;;
45842;SDS011;31563;51.744;8.252;2023-05-07T07:03:58;7.97;;;7.18;;
45842;SDS011;31563;51.744;8.252;2023-05-07T07:06:26;7.78;;;6.20;;
45842;SDS011;31563;51.744;8.252;2023-05-07T07:08:56;7.25;;;6.55;;
45842;SDS011;31563;51.744;8.252;2023-05-07T07:11:24;7.80;;;6.38;;
45842;SDS011;31563;51.744;8.252;2023-05-07T07:13:52;6.63;;;6.03;;
45842;SDS011;31563;51.744;8.252;2023-05-07T07:16:21;8.10;;;6.32;;
45842;SDS011;31563;51.744;8.252;2023-05-07T07:18:49;7.22;;;6.63;;
45842;SDS011;31563;51.744;8.252;2023-05-07T07:21:17;7.20;;;6.47;;
45842;SDS011;31563;51.744;8.252;2023-05-07T07:23:45;6.78;;;5.93;;
45842;SDS011;31563;51.744;8.252;2023-05-07T07:26:15;6.35;;;5.78;;
45842;SDS011;31563;51.744;8.252;2023-05-07T07:28:43;7.18;;;6.45;;
45842;SDS011;31563;51.744;8.252;2023-05-07T07:31:12;6.68;;;5.82;;
45842;SDS011;31563;51.744;8.252;2023-05-07T07:33:40;6.18;;;5.68;;
45842;SDS011;31563;51.744;8.252;2023-05-07T07:36:09;9.50;;;8.60;;
45842;SDS011;31563;51.744;8.252;2023-05-07T07:38:37;13.32;;;12.13;;
45842;SDS011;31563;51.744;8.252;2023-05-07T07:41:05;14.02;;;12.35;;
45842;SDS011;31563;51.744;8.252;2023-05-07T07:43:36;12.27;;;11.00;;
45842;SDS011;31563;51.744;8.252;2023-05-07T07:46:04;11.88;;;8.38;;
45842;SDS011;31563;51.744;8.252;2023-05-07T07:48:32;9.13;;;7.90;;
45842;SDS011;31563;51.744;8.252;2023-05-07T07:51:01;8.40;;;7.60;;
45842;SDS011;31563;51.744;8.252;2023-05-07T07:53:29;9.43;;;7.03;;
45842;SDS011;31563;51.744;8.252;2023-05-07T07:55:57;8.85;;;7.20;;
45842;SDS011;31563;51.744;8.252;2023-05-07T07:58:25;7.25;;;6.65;;
45842;SDS011;31563;51.744;8.252;2023-05-07T08:00:54;7.15;;;6.40;;
45842;SDS011;31563;51.744;8.252;2023-05-07T08:03:23;6.38;;;5.70;;
45842;SDS011;31563;51.744;8.252;2023-05-07T08:05:51;7.50;;;5.70;;
45842;SDS011;31563;51.744;8.252;2023-05-07T08:08:19;6.07;;;5.57;;
45842;SDS011;31563;51.744;8.252;2023-05-07T08:10:47;7.70;;;6.18;;
45842;SDS011;31563;51.744;8.252;2023-05-07T08:13:17;6.10;;;5.50;;
45842;SDS011;31563;51.744;8.252;2023-05-07T08:15:45;5.57;;;5.07;;
45842;SDS011;31563;51.744;8.252;2023-05-07T08:18:14;5.47;;;4.97;;
45842;SDS011;31563;51.744;8.252;2023-05-07T08:20:42;8.43;;;5.43;;
45842;SDS011;31563;51.744;8.252;2023-05-07T08:23:11;5.47;;;4.95;;
45842;SDS011;31563;51.744;8.252;2023-05-07T08:25:39;5.82;;;5.25;;
45842;SDS011;31563;51.744;8.252;2023-05-07T08:28:08;8.80;;;7.85;;
45842;SDS011;31563;51.744;8.252;2023-05-07T08:30:36;12.15;;;10.95;;
45842;SDS011;31563;51.744;8.252;2023-05-07T08:33:05;11.45;;;10.25;;
45842;SDS011;31563;51.744;8.252;2023-05-07T08:35:35;9.63;;;8.73;;
45842;SDS011;31563;51.744;8.252;2023-05-07T08:38:03;9.00;;;7.55;;
45842;SDS011;31563;51.744;8.252;2023-05-07T08:40:33;6.80;;;6.10;;
45842;SDS011;31563;51.744;8.252;2023-05-07T08:43:05;6.15;;;5.57;;
45842;SDS011;31563;51.744;8.252;2023-05-07T08:45:34;6.00;;;5.28;;
45842;SDS011;31563;51.744;8.252;2023-05-07T08:48:02;5.47;;;4.97;;
45842;SDS011;31563;51.744;8.252;2023-05-07T08:50:36;5.18;;;4.72;;
45842;SDS011;31563;51.744;8.252;2023-05-07T08:53:04;5.75;;;5.13;;
45842;SDS011;31563;51.744;8.252;2023-05-07T08:55:32;4.78;;;4.38;;
45842;SDS011;31563;51.744;8.252;2023-05-07T08:58:01;4.90;;;4.47;;
45842;SDS011;31563;51.744;8.252;2023-05-07T09:00:29;4.72;;;4.30;;
45842;SDS011;31563;51.744;8.252;2023-05-07T09:02:57;5.15;;;4.65;;
45842;SDS011;31563;51.744;8.252;2023-05-07T09:05:25;4.38;;;3.97;;
45842;SDS011;31563;51.744;8.252;2023-05-07T09:07:54;4.85;;;4.38;;
45842;SDS011;31563;51.744;8.252;2023-05-07T09:10:23;4.78;;;4.30;;
45842;SDS011;31563;51.744;8.252;2023-05-07T09:12:53;4.82;;;4.43;;
45842;SDS011;31563;51.744;8.252;2023-05-07T09:15:21;4.68;;;4.28;;
45842;SDS011;31563;51.744;8.252;2023-05-07T09:17:49;4.70;;;3.95;;
45842;SDS011;31563;51.744;8.252;2023-05-07T09:20:17;4.10;;;3.70;;
45842;SDS011;31563;51.744;8.252;2023-05-07T09:22:46;4.22;;;3.83;;
45842;SDS011;31563;51.744;8.252;2023-05-07T09:25:15;4.40;;;4.00;;
45842;SDS011;31563;51.744;8.252;2023-05-07T09:27:55;4.07;;;3.78;;
45842;SDS011;31563;51.744;8.252;2023-05-07T09:30:27;3.58;;;3.28;;
45842;SDS011;31563;51.744;8.252;2023-05-07T09:32:58;3.88;;;3.58;;
45842;SDS011;31563;51.744;8.252;2023-05-07T09:35:29;3.60;;;3.30;;
45842;SDS011;31563;51.744;8.252;2023-05-07T09:37:57;3.95;;;3.65;;
45842;SDS011;31563;51.744;8.252;2023-05-07T09:40:31;3.25;;;3.05;;
45842;SDS011;31563;51.744;8.252;2023-05-07T09:43:08;3.63;;;3.33;;
45842;SDS011;31563;51.744;8.252;2023-05-07T09:45:37;3.20;;;2.80;;
45842;SDS011;31563;51.744;8.252;2023-05-07T09:48:05;4.22;;;3.00;;
45842;SDS011;31563;51.744;8.252;2023-05-07T09:50:35;3.20;;;3.00;;
45842;SDS011;31563;51.744;8.252;2023-05-07T09:53:08;3.47;;;3.17;;
45842;SDS011;31563;51.744;8.252;2023-05-07T09:55:39;3.00;;;2.80;;
45842;SDS011;31563;51.744;8.252;2023-05-07T09:58:08;3.22;;;2.95;;
45842;SDS011;31563;51.744;8.252;2023-05-07T10:00:40;3.08;;;2.88;;
45842;SDS011;31563;51.744;8.252;2023-05-07T10:03:09;3.40;;;3.10;;
45842;SDS011;31563;51.744;8.252;2023-05-07T10:05:39;3.53;;;3.22;;
45842;SDS011;31563;51.744;8.252;2023-05-07T10:08:08;3.65;;;3.35;;
45842;SDS011;31563;51.744;8.252;2023-05-07T10:10:38;3.42;;;2.83;;
45842;SDS011;31563;51.744;8.252;2023-05-07T10:13:07;3.10;;;2.90;;
45842;SDS011;31563;51.744;8.252;2023-05-07T10:15:37;2.67;;;2.47;;
45842;SDS011;31563;51.744;8.252;2023-05-07T10:18:05;2.90;;;2.70;;
45842;SDS011;31563;51.744;8.252;2023-05-07T10:20:34;3.97;;;2.53;;
45842;SDS011;31563;51.744;8.252;2023-05-07T10:23:04;2.50;;;2.30;;
45842;SDS011;31563;51.744;8.252;2023-05-07T10:25:33;3.33;;;2.53;;
45842;SDS011;31563;51.744;8.252;2023-05-07T10:28:04;2.97;;;2.73;;
45842;SDS011;31563;51.744;8.252;2023-05-07T10:30:37;2.30;;;2.20;;
45842;SDS011;31563;51.744;8.252;2023-05-07T10:33:13;3.00;;;2.35;;
45842;SDS011;31563;51.744;8.252;2023-05-07T10:35:45;2.22;;;2.05;;
45842;SDS011;31563;51.744;8.252;2023-05-07T10:38:14;2.45;;;2.25;;
45842;SDS011;31563;51.744;8.252;2023-05-07T10:40:43;2.10;;;1.97;;
45842;SDS011;31563;51.744;8.252;2023-05-07T10:43:15;2.35;;;2.15;;
45842;SDS011;31563;51.744;8.252;2023-05-07T10:45:43;2.40;;;2.20;;
45842;SDS011;31563;51.744;8.252;2023-05-07T10:48:31;2.50;;;2.30;;
45842;SDS011;31563;51.744;8.252;2023-05-07T10:53:46;2.15;;;2.05;;
45842;SDS011;31563;51.744;8.252;2023-05-07T10:56:24;2.35;;;2.15;;
45842;SDS011;31563;51.744;8.252;2023-05-07T10:59:09;2.38;;;2.22;;
45842;SDS011;31563;51.744;8.252;2023-05-07T11:01:58;2.00;;;1.90;;
45842;SDS011;31563;51.744;8.252;2023-05-07T11:04:29;1.98;;;1.88;;
45842;SDS011;31563;51.744;8.252;2023-05-07T11:09:57;1.77;;;1.67;;
45842;SDS011;31563;51.744;8.252;2023-05-07T11:12:46;1.83;;;1.60;;
45842;SDS011;31563;51.744;8.252;2023-05-07T11:18:18;1.83;;;1.73;;
45842;SDS011;31563;51.744;8.252;2023-05-07T11:20:47;1.97;;;1.87;;
45842;SDS011;31563;51.744;8.252;2023-05-07T11:26:43;1.83;;;1.73;;
45842;SDS011;31563;51.744;8.252;2023-05-07T11:29:13;1.60;;;1.50;;
45842;SDS011;31563;51.744;8.252;2023-05-07T11:31:51;1.50;;;1.40;;
45842;SDS011;31563;51.744;8.252;2023-05-07T11:34:21;1.67;;;1.58;;
45842;SDS011;31563;51.744;8.252;2023-05-07T11:36:50;1.50;;;1.40;;
45842;SDS011;31563;51.744;8.252;2023-05-07T11:41:53;1.30;;;1.20;;
45842;SDS011;31563;51.744;8.252;2023-05-07T11:44:21;1.38;;;1.27;;
45842;SDS011;31563;51.744;8.252;2023-05-07T11:46:51;1.50;;;1.40;;
45842;SDS011;31563;51.744;8.252;2023-05-07T11:49:19;1.45;;;1.35;;
45842;SDS011;31563;51.744;8.252;2023-05-07T11:51:47;1.55;;;1.45;;
45842;SDS011;31563;51.744;8.252;2023-05-07T11:54:15;1.20;;;1.10;;
45842;SDS011;31563;51.744;8.252;2023-05-07T11:59:16;1.00;;;0.90;;
45842;SDS011;31563;51.744;8.252;2023-05-07T12:01:45;1.35;;;1.25;;
45842;SDS011;31563;51.744;8.252;2023-05-07T12:04:20;1.23;;;1.05;;
45842;SDS011;31563;51.744;8.252;2023-05-07T12:06:48;1.38;;;1.27;;
45842;SDS011;31563;51.744;8.252;2023-05-07T12:09:17;1.30;;;1.20;;
45842;SDS011;31563;51.744;8.252;2023-05-07T12:11:45;1.38;;;1.00;;
45842;SDS011;31563;51.744;8.252;2023-05-07T12:14:14;1.20;;;0.98;;
45842;SDS011;31563;51.744;8.252;2023-05-07T12:16:43;0.90;;;0.90;;
45842;SDS011;31563;51.744;8.252;2023-05-07T12:19:13;1.00;;;1.00;;
45842;SDS011;31563;51.744;8.252;2023-05-07T12:21:43;0.90;;;0.90;;
45842;SDS011;31563;51.744;8.252;2023-05-07T12:24:11;1.77;;;0.90;;
45842;SDS011;31563;51.744;8.252;2023-05-07T12:26:41;1.75;;;0.73;;
45842;SDS011;31563;51.744;8.252;2023-05-07T12:29:10;0.80;;;0.80;;
45842;SDS011;31563;51.744;8.252;2023-05-07T12:31:40;1.10;;;0.98;;
45842;SDS011;31563;51.744;8.252;2023-05-07T12:34:08;0.77;;;0.77;;
45842;SDS011;31563;51.744;8.252;2023-05-07T12:36:38;0.70;;;0.70;;
45842;SDS011;31563;51.744;8.252;2023-05-07T12:39:08;0.80;;;0.75;;
45842;SDS011;31563;51.744;8.252;2023-05-07T12:41:51;0.75;;;0.75;;
45842;SDS011;31563;51.744;8.252;2023-05-07T12:44:22;0.82;;;0.82;;
45842;SDS011;31563;51.744;8.252;2023-05-07T12:46:50;0.70;;;0.70;;
45842;SDS011;31563;51.744;8.252;2023-05-07T12:49:19;0.73;;;0.73;;
45842;SDS011;31563;51.744;8.252;2023-05-07T12:51:50;0.73;;;0.73;;
45842;SDS011;31563;51.744;8.252;2023-05-07T12:54:29;0.80;;;0.80;;
45842;SDS011;31563;51.744;8.252;2023-05-07T12:57:02;0.70;;;0.70;;
45842;SDS011;31563;51.744;8.252;2023-05-07T12:59:31;0.70;;;0.70;;
45842;SDS011;31563;51.744;8.252;2023-05-07T13:02:01;0.77;;;0.60;;
45842;SDS011;31563;51.744;8.252;2023-05-07T13:04:29;0.68;;;0.65;;
45842;SDS011;31563;51.744;8.252;2023-05-07T13:09:25;0.60;;;0.60;;
45842;SDS011;31563;51.744;8.252;2023-05-07T13:11:57;0.60;;;0.60;;
45842;SDS011;31563;51.744;8.252;2023-05-07T13:14:27;0.82;;;0.60;;
45842;SDS011;31563;51.744;8.252;2023-05-07T13:16:56;0.93;;;0.70;;
45842;SDS011;31563;51.744;8.252;2023-05-07T13:21:53;1.52;;;1.40;;
45842;SDS011;31563;51.744;8.252;2023-05-07T13:24:21;4.05;;;1.60;;
45842;SDS011;31563;51.744;8.252;2023-05-07T13:26:50;3.38;;;1.70;;
45842;SDS011;31563;51.744;8.252;2023-05-07T13:29:19;4.13;;;1.52;;
45842;SDS011;31563;51.744;8.252;2023-05-07T13:31:51;2.80;;;1.42;;
45842;SDS011;31563;51.744;8.252;2023-05-07T13:34:19;5.88;;;2.10;;
45842;SDS011;31563;51.744;8.252;2023-05-07T13:36:48;3.53;;;1.88;;
45842;SDS011;31563;51.744;8.252;2023-05-07T13:39:16;2.25;;;1.77;;
45842;SDS011;31563;51.744;8.252;2023-05-07T13:41:44;5.20;;;1.85;;
45842;SDS011;31563;51.744;8.252;2023-05-07T13:44:12;8.38;;;1.67;;
45842;SDS011;31563;51.744;8.252;2023-05-07T13:46:42;5.55;;;1.63;;
45842;SDS011;31563;51.744;8.252;2023-05-07T13:49:10;2.03;;;1.60;;
45842;SDS011;31563;51.744;8.252;2023-05-07T13:54:07;5.53;;;2.13;;
45842;SDS011;31563;51.744;8.252;2023-05-07T13:56:35;4.20;;;2.10;;
45842;SDS011;31563;51.744;8.252;2023-05-07T13:59:03;2.93;;;1.90;;
45842;SDS011;31563;51.744;8.252;2023-05-07T14:01:31;2.57;;;2.13;;
45842;SDS011;31563;51.744;8.252;2023-05-07T14:04:01;2.15;;;1.95;;
45842;SDS011;31563;51.744;8.252;2023-05-07T14:06:29;3.15;;;2.00;;
45842;SDS011;31563;51.744;8.252;2023-05-07T14:08:57;3.43;;;1.87;;
45842;SDS011;31563;51.744;8.252;2023-05-07T14:11:26;3.90;;;2.35;;
45842;SDS011;31563;51.744;8.252;2023-05-07T14:13:54;3.53;;;2.10;;
45842;SDS011;31563;51.744;8.252;2023-05-07T14:16:23;7.40;;;2.47;;
45842;SDS011;31563;51.744;8.252;2023-05-07T14:18:51;3.40;;;2.10;;
45842;SDS011;31563;51.744;8.252;2023-05-07T14:21:25;4.40;;;1.52;;
45842;SDS011;31563;51.744;8.252;2023-05-07T14:23:53;3.90;;;1.90;;
45842;SDS011;31563;51.744;8.252;2023-05-07T14:26:22;4.80;;;2.10;;
45842;SDS011;31563;51.744;8.252;2023-05-07T14:28:53;2.50;;;1.80;;
45842;SDS011;31563;51.744;8.252;2023-05-07T14:31:23;2.53;;;2.05;;
45842;SDS011;31563;51.744;8.252;2023-05-07T14:36:20;9.10;;;2.28;;
45842;SDS011;31563;51.744;8.252;2023-05-07T14:38:52;4.45;;;2.03;;
45842;SDS011;31563;51.744;8.252;2023-05-07T14:41:21;4.70;;;1.95;;
45842;SDS011;31563;51.744;8.252;2023-05-07T14:43:49;5.78;;;2.05;;
45842;SDS011;31563;51.744;8.252;2023-05-07T14:46:17;3.25;;;1.70;;
45842;SDS011;31563;51.744;8.252;2023-05-07T14:48:46;4.53;;;1.88;;
45842;SDS011;31563;51.744;8.252;2023-05-07T14:51:14;3.95;;;1.58;;
45842;SDS011;31563;51.744;8.252;2023-05-07T14:53:43;6.60;;;1.75;;
45842;SDS011;31563;51.744;8.252;2023-05-07T14:56:12;4.85;;;1.88;;
45842;SDS011;31563;51.744;8.252;2023-05-07T14:58:40;5.05;;;2.00;;
45842;SDS011;31563;51.744;8.252;2023-05-07T15:01:09;3.13;;;1.57;;
45842;SDS011;31563;51.744;8.252;2023-05-07T15:03:37;4.28;;;1.80;;
45842;SDS011;31563;51.744;8.252;2023-05-07T15:06:07;3.25;;;1.50;;
45842;SDS011;31563;51.744;8.252;2023-05-07T15:08:35;1.73;;;1.40;;
45842;SDS011;31563;51.744;8.252;2023-05-07T15:11:03;4.18;;;1.67;;
45842;SDS011;31563;51.744;8.252;2023-05-07T15:13:32;4.10;;;1.63;;
45842;SDS011;31563;51.744;8.252;2023-05-07T15:16:00;2.75;;;1.50;;
45842;SDS011;31563;51.744;8.252;2023-05-07T15:18:29;2.83;;;1.83;;
45842;SDS011;31563;51.744;8.252;2023-05-07T15:20:57;2.30;;;1.50;;
45842;SDS011;31563;51.744;8.252;2023-05-07T15:23:25;2.05;;;1.65;;
45842;SDS011;31563;51.744;8.252;2023-05-07T15:25:53;2.60;;;1.60;;
45842;SDS011;31563;51.744;8.252;2023-05-07T15:28:21;2.10;;;1.65;;
45842;SDS011;31563;51.744;8.252;2023-05-07T15:30:52;9.27;;;4.45;;